Time;durP1;ratioP1;P1;durP2;ratioP2;P2;SDS_P1;SDS_P2;PMS_P1;PMS_P2;Temp;Humidity;BMP_temperature;BMP_pressure;BME280_temperature;BME280_humidity;BME280_pressure;Samples;Min_cycle;Max_cycle;Signal;HPM_P1;HPM_P2
2023/06/06 00:00:10;;;;;;;7.07;3.45;;;;;;;21.44;49.97;99788.31;7820855;32;37553;-79
2023/06/06 00:04:27;;;;;;;7.12;3.37;;;;;;;21.29;50.05;99795.34;7820860;32;36775;-82
2023/06/06 00:08:43;;;;;;;6.70;3.17;;;;;;;21.31;49.89;99806.09;7820829;32;40031;-82
2023/06/06 00:13:01;;;;;;;9.02;3.28;;;;;;;21.25;49.93;99805.50;7820821;32;39830;-80
2023/06/06 00:17:18;;;;;;;6.28;3.03;;;;;;;21.43;50.61;99799.75;7820689;32;37964;-81
2023/06/06 00:21:35;;;;;;;6.60;3.60;;;;;;;21.40;51.45;99801.25;7820710;32;36654;-80
2023/06/06 00:25:53;;;;;;;5.35;3.33;;;;;;;21.25;51.17;99804.69;7834456;31;39911;-81
2023/06/06 00:30:11;;;;;;;10.57;3.62;;;;;;;21.47;52.92;99809.03;7847914;31;39898;-81
2023/06/06 00:34:27;;;;;;;10.18;3.60;;;;;;;21.17;54.54;99818.28;7847964;31;38041;-80
2023/06/06 00:38:43;;;;;;;8.70;3.60;;;;;;;21.08;55.53;99808.47;7847995;31;37808;-79
2023/06/06 00:43:00;;;;;;;7.00;3.78;;;;;;;21.15;55.22;99820.59;7848025;31;39213;-79
2023/06/06 00:47:16;;;;;;;7.10;3.72;;;;;;;20.74;56.82;99827.84;7847957;31;40613;-80
2023/06/06 00:51:34;;;;;;;9.80;4.40;;;;;;;20.51;57.52;99818.25;7847764;31;38626;-80
2023/06/06 00:55:50;;;;;;;10.48;4.28;;;;;;;20.17;59.10;99809.84;7847750;31;37590;-79
2023/06/06 01:00:08;;;;;;;7.20;3.70;;;;;;;19.98;59.82;99806.72;7846061;31;39179;-79
2023/06/06 01:04:25;;;;;;;10.70;3.90;;;;;;;19.97;60.26;99805.91;7847613;31;39793;-79
2023/06/06 01:08:43;;;;;;;7.87;4.75;;;;;;;19.63;61.88;99812.41;7847586;31;37931;-80
2023/06/06 01:13:11;;;;;;;9.85;4.68;;;;;;;19.52;61.96;99823.84;7847673;31;37737;-80
2023/06/06 01:17:29;;;;;;;9.52;4.30;;;;;;;19.64;62.50;99833.37;7847690;31;40767;-78
2023/06/06 01:21:46;;;;;;;8.75;4.22;;;;;;;19.89;61.88;99826.94;7820337;31;39930;-79
2023/06/06 01:26:05;;;;;;;9.95;4.80;;;;;;;19.48;64.00;99822.06;7819864;32;37671;-79
2023/06/06 01:30:27;;;;;;;10.00;4.32;;;;;;;19.70;62.82;99837.59;7819822;32;36915;-79
2023/06/06 01:34:54;;;;;;;9.05;3.50;;;;;;;19.62;63.01;99844.75;7820016;32;39270;-80
2023/06/06 01:39:15;;;;;;;9.00;4.25;;;;;;;19.49;63.49;99835.53;7819772;32;39986;-80
2023/06/06 01:43:32;;;;;;;8.70;4.12;;;;;;;19.38;64.36;99827.94;7823576;31;38091;-80
2023/06/06 01:47:49;;;;;;;10.27;5.07;;;;;;;19.54;64.03;99825.44;7829007;31;36941;-79
2023/06/06 01:52:08;;;;;;;10.45;4.72;;;;;;;19.30;64.94;99810.25;7818323;32;39313;-80
2023/06/06 01:56:25;;;;;;;10.85;4.78;;;;;;;19.39;64.59;99807.47;7819586;32;39724;-79
2023/06/06 02:00:42;;;;;;;10.20;4.45;;;;;;;19.19;65.06;99803.44;7819532;32;38534;-80
2023/06/06 02:04:58;;;;;;;9.43;4.78;;;;;;;19.19;64.45;99797.91;7819389;32;37772;-79
2023/06/06 02:09:14;;;;;;;9.93;4.70;;;;;;;19.12;65.67;99796.47;7818204;32;40145;-79
2023/06/06 02:13:31;;;;;;;11.65;4.95;;;;;;;19.31;64.80;99790.53;7830244;31;39872;-79
2023/06/06 02:17:48;;;;;;;9.85;4.70;;;;;;;19.31;64.45;99786.97;7846894;31;37905;-80
2023/06/06 02:22:05;;;;;;;10.27;5.03;;;;;;;19.23;64.64;99801.63;7846771;31;37107;-79
2023/06/06 02:26:22;;;;;;;9.98;4.10;;;;;;;19.31;64.53;99806.34;7846608;31;39332;-79
2023/06/06 02:30:38;;;;;;;8.75;4.28;;;;;;;19.23;64.79;99801.63;7845970;31;39697;-79
2023/06/06 02:34:55;;;;;;;8.43;4.40;;;;;;;19.21;64.99;99801.16;7846413;31;38896;-80
2023/06/06 02:39:11;;;;;;;6.70;3.83;;;;;;;19.31;64.78;99804.38;7846340;31;37047;-80
2023/06/06 02:43:27;;;;;;;8.05;4.10;;;;;;;19.24;64.97;99811.56;7846334;31;40047;-82
2023/06/06 02:47:44;;;;;;;7.68;4.20;;;;;;;19.36;64.60;99799.81;7846164;31;40743;-80
2023/06/06 02:52:00;;;;;;;9.15;4.10;;;;;;;19.25;65.07;99797.41;7846039;31;38550;-78
2023/06/06 02:56:17;;;;;;;8.93;3.83;;;;;;;19.19;65.47;99792.38;7846095;31;36929;-79
2023/06/06 03:00:34;;;;;;;6.22;3.67;;;;;;;19.04;66.00;99804.78;7845884;31;40452;-79
2023/06/06 03:04:50;;;;;;;10.98;4.05;;;;;;;19.35;64.97;99796.25;7845308;31;40608;-80
2023/06/06 03:09:07;;;;;;;8.40;4.40;;;;;;;19.45;64.43;99804.16;7824731;31;37844;-79
2023/06/06 03:13:24;;;;;;;6.82;3.97;;;;;;;19.38;64.36;99794.78;7818046;32;36995;-79
2023/06/06 03:17:40;;;;;;;7.55;4.05;;;;;;;19.30;64.61;99804.72;7817956;32;39835;-80
2023/06/06 03:21:59;;;;;;;5.72;3.87;;;;;;;19.32;64.25;99819.81;7819754;32;40777;-80
2023/06/06 03:26:15;;;;;;;14.18;4.22;;;;;;;19.06;65.35;99842.00;7820159;32;37828;-80
2023/06/06 03:30:32;;;;;;;10.32;4.40;;;;;;;19.31;64.54;99836.72;7821319;32;37289;-79
2023/06/06 03:34:48;;;;;;;7.70;3.92;;;;;;;19.34;65.04;99838.84;7821314;32;39886;-80
2023/06/06 03:39:05;;;;;;;10.15;4.20;;;;;;;19.32;65.91;99830.06;7821286;32;39990;-80
2023/06/06 03:43:21;;;;;;;6.93;3.90;;;;;;;19.40;65.73;99831.97;7819867;32;38697;-80
2023/06/06 03:47:37;;;;;;;8.68;3.95;;;;;;;19.68;64.51;99817.75;7821091;32;37700;-80
2023/06/06 03:51:54;;;;;;;8.73;3.95;;;;;;;19.48;65.02;99817.31;7821098;32;39864;-79
2023/06/06 03:56:10;;;;;;;7.62;3.83;;;;;;;19.19;66.01;99811.72;7821008;32;40779;-79
2023/06/06 04:00:27;;;;;;;6.62;4.03;;;;;;;19.32;65.58;99824.56;7824198;31;37820;-79
2023/06/06 04:04:43;;;;;;;7.57;4.07;;;;;;;19.25;65.83;99822.28;7848425;31;37751;-80
2023/06/06 04:08:59;;;;;;;6.87;3.80;;;;;;;19.26;65.57;99825.84;7848541;31;39955;-79
2023/06/06 04:13:16;;;;;;;6.80;3.80;;;;;;;19.26;65.59;99837.72;7848359;31;39880;-79
2023/06/06 04:17:32;;;;;;;15.07;3.90;;;;;;;19.13;66.21;99849.78;7848288;31;37671;-79
2023/06/06 04:21:50;;;;;;;7.35;3.78;;;;;;;19.29;65.78;99844.53;7848197;31;36980;-80
2023/06/06 04:26:10;;;;;;;9.23;4.20;;;;;;;19.13;66.91;99849.78;7848225;31;39242;-78
2023/06/06 04:30:29;;;;;;;6.12;3.75;;;;;;;19.26;66.23;99842.44;7848020;31;39749;-80
2023/06/06 04:34:46;;;;;;;10.57;4.00;;;;;;;19.18;66.45;99829.44;7847267;31;39543;-79
2023/06/06 04:39:02;;;;;;;6.10;3.80;;;;;;;19.12;67.02;99826.06;7848070;31;37599;-78
2023/06/06 04:43:23;;;;;;;10.43;3.90;;;;;;;19.32;66.17;99819.81;7848034;31;39992;-78
2023/06/06 04:47:44;;;;;;;7.00;4.12;;;;;;;19.50;65.40;99811.47;7847779;31;40864;-79
2023/06/06 04:52:02;;;;;;;15.00;4.10;;;;;;;19.59;65.43;99805.91;7820279;31;37693;-80
2023/06/06 04:56:19;;;;;;;7.80;3.92;;;;;;;19.52;65.71;99795.34;7820355;32;36949;-79
2023/06/06 05:00:35;;;;;;;9.05;4.32;;;;;;;19.30;66.39;99790.91;7820292;31;39980;-79
2023/06/06 05:04:53;;;;;;;8.13;4.45;;;;;;;19.13;67.26;99786.25;7820055;32;40879;-79
2023/06/06 05:09:09;;;;;;;8.57;4.60;;;;;;;19.02;68.18;99791.28;7820064;32;38670;-80
2023/06/06 05:13:25;;;;;;;10.95;4.18;;;;;;;19.16;67.79;99788.31;7820118;32;37939;-80
2023/06/06 05:17:55;;;;;;;6.90;3.60;;;;;;;19.22;67.76;99794.50;7820051;32;39453;-78
2023/06/06 05:22:15;;;;;;;6.10;3.67;;;;;;;19.32;67.43;99788.63;7819975;32;40819;-79
2023/06/06 05:26:31;;;;;;;8.05;4.60;;;;;;;19.44;66.93;99787.94;7819827;32;37987;-78
2023/06/06 05:30:48;;;;;;;9.23;3.80;;;;;;;19.36;67.45;99797.84;7819803;32;36862;-80
2023/06/06 05:35:06;;;;;;;7.90;4.30;;;;;;;19.38;67.34;99789.25;7819867;32;40577;-80
2023/06/06 05:39:24;;;;;;;10.00;4.20;;;;;;;19.59;67.12;99794.84;7819743;32;39721;-80
2023/06/06 05:43:44;;;;;;;6.68;4.20;;;;;;;19.66;67.29;99806.19;7819586;32;38437;-80
2023/06/06 05:48:00;;;;;;;12.45;4.22;;;;;;;19.56;67.88;99809.31;7820436;31;36773;-79
2023/06/06 05:52:20;;;;;;;7.25;4.32;;;;;;;19.76;67.41;99816.91;7819459;32;39979;-79
2023/06/06 05:56:36;;;;;;;6.68;3.90;;;;;;;19.83;67.76;99806.16;7820340;31;39937;-79
2023/06/06 06:00:53;;;;;;;7.37;4.10;;;;;;;20.14;66.84;99815.25;7819351;32;38661;-80
2023/06/06 06:05:09;;;;;;;7.70;4.65;;;;;;;20.01;66.85;99817.13;7817920;32;37708;-69
2023/06/06 06:09:25;;;;;;;6.12;3.75;;;;;;;20.10;66.70;99815.09;7818786;32;39506;-69
2023/06/06 06:13:42;;;;;;;9.60;4.65;;;;;;;20.41;66.51;99816.69;7819279;32;39868;-69
2023/06/06 06:17:58;;;;;;;6.62;4.10;;;;;;;20.58;65.41;99819.31;7839787;31;38592;-80
2023/06/06 06:22:15;;;;;;;10.70;4.60;;;;;;;20.50;65.13;99822.97;7820729;31;36889;-79
2023/06/06 06:26:31;;;;;;;9.90;5.10;;;;;;;20.43;65.70;99829.03;7832403;31;40126;-78
2023/06/06 06:30:48;;;;;;;8.90;4.97;;;;;;;20.49;65.47;99829.66;7845836;31;39853;-78
2023/06/06 06:35:05;;;;;;;6.87;4.40;;;;;;;20.57;64.89;99828.75;7845910;31;38800;-78
2023/06/06 06:39:22;;;;;;;8.73;4.53;;;;;;;20.41;65.24;99831.34;7845868;31;36979;-77
2023/06/06 06:43:38;;;;;;;12.60;5.05;;;;;;;20.44;65.46;99830.66;7845081;31;39028;-79
2023/06/06 06:47:55;;;;;;;8.38;4.68;;;;;;;20.43;66.88;99844.84;7845645;31;40035;-80
2023/06/06 06:52:11;;;;;;;8.18;4.87;;;;;;;20.78;66.27;99839.06;7841036;31;38031;-80
2023/06/06 06:56:28;;;;;;;8.90;5.20;;;;;;;20.95;66.41;99838.88;7839899;31;37747;-79
2023/06/06 07:00:44;;;;;;;12.18;5.03;;;;;;;20.84;67.02;99837.72;7843629;31;39340;-79
2023/06/06 07:05:01;;;;;;;10.95;5.28;;;;;;;21.12;65.53;99837.12;7845776;31;40862;-80
2023/06/06 07:09:20;;;;;;;9.18;5.43;;;;;;;21.16;65.34;99838.03;7845049;31;37950;-78
2023/06/06 07:13:36;;;;;;;10.45;5.12;;;;;;;21.16;65.02;99846.34;7841418;31;37060;-80
2023/06/06 07:17:54;;;;;;;9.55;5.28;;;;;;;21.07;65.42;99852.00;7817761;32;39213;-78
2023/06/06 07:22:10;;;;;;;9.50;5.25;;;;;;;21.14;65.12;99846.69;7817907;32;39722;-80
2023/06/06 07:26:27;;;;;;;12.00;5.28;;;;;;;21.28;65.12;99849.16;7826673;31;37807;-80
2023/06/06 07:30:44;;;;;;;9.98;5.40;;;;;;;21.32;64.23;99850.13;7835803;31;37916;-78
2023/06/06 07:35:01;;;;;;;11.93;5.40;;;;;;;21.18;64.26;99857.94;7843586;31;39196;-77
2023/06/06 07:39:18;;;;;;;9.32;5.72;;;;;;;21.13;64.55;99856.19;7844245;31;39863;-78
2023/06/06 07:43:34;;;;;;;8.48;5.18;;;;;;;21.10;64.64;99861.59;7840568;31;38593;-79
2023/06/06 07:47:51;;;;;;;9.02;4.95;;;;;;;21.08;65.69;99852.81;7837056;31;37516;-80
2023/06/06 07:52:10;;;;;;;9.13;5.53;;;;;;;21.17;65.81;99856.31;7817401;32;39261;-80
2023/06/06 07:56:30;;;;;;;7.78;5.28;;;;;;;21.40;65.25;99856.69;7816957;32;40011;-79
2023/06/06 08:00:46;;;;;;;10.20;5.12;;;;;;;21.36;64.99;99858.56;7816974;32;38451;-79
2023/06/06 08:05:03;;;;;;;8.77;5.07;;;;;;;21.43;63.84;99852.44;7816858;32;37027;-80
2023/06/06 08:09:20;;;;;;;8.70;5.18;;;;;;;21.00;65.16;99851.72;7835591;31;39137;-80
2023/06/06 08:13:36;;;;;;;11.10;4.90;;;;;;;21.10;65.21;99851.31;7846154;31;40104;-79
2023/06/06 08:17:52;;;;;;;10.07;5.20;;;;;;;21.11;65.24;99855.72;7820747;32;37833;-79
2023/06/06 08:22:09;;;;;;;9.38;5.32;;;;;;;21.21;64.72;99851.69;7820920;32;37786;-79
2023/06/06 08:26:27;;;;;;;9.88;5.85;;;;;;;21.18;64.26;99846.84;7826809;31;39998;-78
2023/06/06 08:30:43;;;;;;;11.52;5.20;;;;;;;21.04;64.47;99840.78;7820219;32;40219;-80
2023/06/06 08:35:03;;;;;;;8.73;5.62;;;;;;;21.19;64.61;99848.44;7820581;32;38506;-80
2023/06/06 08:39:20;;;;;;;9.13;5.28;;;;;;;21.27;64.75;99846.75;7819352;32;36896;-80
2023/06/06 08:43:39;;;;;;;9.55;5.53;;;;;;;21.25;64.87;99852.62;7818549;32;39719;-81
2023/06/06 08:47:55;;;;;;;8.88;5.57;;;;;;;21.27;64.88;99844.78;7818209;32;38962;-81
2023/06/06 08:52:13;;;;;;;9.07;5.45;;;;;;;21.34;64.29;99845.03;7819424;32;37582;-81
2023/06/06 08:56:30;;;;;;;11.70;5.47;;;;;;;21.33;64.32;99848.94;7819311;32;36971;-81
2023/06/06 09:00:49;;;;;;;9.75;5.57;;;;;;;21.27;64.81;99844.78;7819296;32;40001;-81
2023/06/06 09:05:05;;;;;;;9.63;5.62;;;;;;;21.30;64.96;99844.09;7820395;32;39936;-81
2023/06/06 09:09:22;;;;;;;9.30;5.62;;;;;;;21.40;64.76;99837.28;7819024;32;37548;-81
2023/06/06 09:13:45;;;;;;;10.02;5.75;;;;;;;21.60;64.54;99835.63;7820239;32;37800;-81
2023/06/06 09:18:01;;;;;;;8.60;5.10;;;;;;;21.70;63.96;99835.19;7819921;32;40047;-81
2023/06/06 09:22:18;;;;;;;8.05;5.20;;;;;;;21.45;64.22;99837.06;7820275;32;39867;-81
2023/06/06 09:26:35;;;;;;;11.25;5.12;;;;;;;21.53;64.21;99830.66;7819087;32;38663;-81
2023/06/06 09:30:51;;;;;;;8.23;4.80;;;;;;;21.46;65.20;99835.13;7819849;32;37034;-81
2023/06/06 09:35:08;;;;;;;8.88;4.85;;;;;;;22.08;63.58;99825.69;7820055;32;40774;-81
2023/06/06 09:39:25;;;;;;;7.72;4.68;;;;;;;21.98;64.22;99823.38;7819885;32;40795;-81
2023/06/06 09:43:41;;;;;;;5.97;3.97;;;;;;;21.70;63.79;99818.53;7819888;32;38112;-81
2023/06/06 09:47:59;;;;;;;7.32;3.97;;;;;;;21.96;62.80;99824.91;7819955;32;37080;-81
2023/06/06 09:52:15;;;;;;;10.57;3.50;;;;;;;22.12;63.06;99826.59;7818724;32;39332;-81
2023/06/06 09:56:33;;;;;;;6.22;3.85;;;;;;;22.16;62.59;99828.69;7819808;32;40007;-81
2023/06/06 10:00:50;;;;;;;3.85;2.75;;;;;;;22.12;62.68;99834.94;7818455;32;39374;-81
2023/06/06 10:05:07;;;;;;;8.00;3.10;;;;;;;22.25;63.05;99826.56;7819674;32;36971;-81
2023/06/06 10:09:28;;;;;;;4.32;2.55;;;;;;;22.69;62.09;99819.19;7819611;32;39187;-81
2023/06/06 10:13:45;;;;;;;6.70;2.70;;;;;;;22.70;60.96;99808.91;7818419;32;39842;-81
2023/06/06 10:18:02;;;;;;;9.25;2.78;;;;;;;22.63;61.34;99814.28;7819437;32;37795;-81
2023/06/06 10:22:18;;;;;;;3.75;2.37;;;;;;;22.96;61.16;99804.88;7818286;32;37077;-81
2023/06/06 10:26:55;;;;;;;3.37;2.20;;;;;;;22.84;60.28;99817.66;7819415;32;39169;-81
2023/06/06 10:31:50;;;;;;;4.68;2.25;;;;;;;22.90;59.08;99811.84;7816736;32;40848;-80
2023/06/06 10:36:09;;;;;;;3.50;2.03;;;;;;;22.69;59.29;99801.72;7805286;32;37870;-81
2023/06/06 10:40:25;;;;;;;3.28;2.10;;;;;;;22.78;59.76;99805.16;7818021;32;36824;-81
2023/06/06 10:44:55;;;;;;;2.62;1.60;;;;;;;22.81;60.34;99803.66;7819056;32;39898;-81
2023/06/06 10:49:12;;;;;;;2.65;1.50;;;;;;;22.78;59.61;99807.94;7818883;32;40780;-81
2023/06/06 10:53:28;;;;;;;2.87;1.80;;;;;;;22.95;59.77;99806.03;7818688;32;38905;-81
2023/06/06 10:57:55;;;;;;;2.17;1.50;;;;;;;23.04;59.53;99803.87;7818745;32;36947;-80
2023/06/06 11:02:31;;;;;;;3.45;1.40;;;;;;;23.07;59.01;99803.22;7818722;32;39266;-81
2023/06/06 11:06:50;;;;;;;2.22;1.37;;;;;;;22.69;59.12;99810.06;7818429;32;40638;-81
2023/06/06 11:11:18;;;;;;;1.95;1.27;;;;;;;22.72;59.37;99811.34;7818472;32;38644;-82
2023/06/06 11:15:34;;;;;;;2.80;1.50;;;;;;;22.72;59.74;99801.03;7818276;32;38121;-81
2023/06/06 11:19:55;;;;;;;4.32;1.27;;;;;;;22.63;59.79;99800.38;7818307;32;39980;-81
2023/06/06 11:24:14;;;;;;;7.85;3.25;;;;;;;22.86;58.87;99804.19;7818043;32;39918;-81
2023/06/06 11:28:31;;;;;;;3.10;1.40;;;;;;;22.86;60.54;99817.31;7817836;32;38000;-81
2023/06/06 11:32:47;;;;;;;2.47;1.45;;;;;;;22.81;60.23;99801.69;7816507;32;36982;-82
2023/06/06 11:37:08;;;;;;;1.40;1.30;;;;;;;22.98;60.78;99797.78;7817806;32;39842;-81
2023/06/06 11:41:25;;;;;;;2.87;1.48;;;;;;;22.86;61.73;99795.87;7818300;32;39883;-81
2023/06/06 11:45:41;;;;;;;2.75;1.45;;;;;;;22.77;62.44;99792.44;7821366;32;38705;-81
2023/06/06 11:49:58;;;;;;;1.17;1.08;;;;;;;22.98;62.29;99791.41;7821569;31;36894;-80
2023/06/06 11:54:17;;;;;;;1.10;1.00;;;;;;;23.28;60.31;99794.63;7830395;31;39140;-81
2023/06/06 11:58:38;;;;;;;2.30;1.20;;;;;;;23.35;59.28;99783.72;7827212;31;39895;-81
2023/06/06 12:02:56;;;;;;;1.40;1.30;;;;;;;23.62;61.13;99787.53;7819986;32;37641;-80
2023/06/06 12:07:12;;;;;;;2.30;1.50;;;;;;;23.57;60.15;99789.78;7819931;32;36711;-81
2023/06/06 12:11:31;;;;;;;3.70;1.70;;;;;;;23.91;57.70;99793.81;7819858;32;39219;-81
2023/06/06 12:15:50;;;;;;;2.80;2.12;;;;;;;23.59;58.68;99785.50;7833942;31;38905;-79
2023/06/06 12:20:07;;;;;;;2.28;2.00;;;;;;;23.58;58.74;99791.41;7834133;31;38616;-80
2023/06/06 12:24:25;;;;;;;5.32;2.15;;;;;;;23.22;59.29;99788.53;7826426;31;37300;-80
2023/06/06 12:28:59;;;;;;;4.65;2.70;;;;;;;23.22;58.39;99791.31;7844005;31;38282;-80
2023/06/06 12:33:15;;;;;;;4.55;2.55;;;;;;;22.70;60.07;99792.25;7836952;31;40789;-79
2023/06/06 12:37:43;;;;;;;5.40;2.70;;;;;;;22.54;59.35;99800.50;7846641;31;38070;-81
2023/06/06 12:42:00;;;;;;;7.07;2.95;;;;;;;22.44;60.74;99799.03;7820318;32;37711;-81
2023/06/06 12:46:16;;;;;;;3.25;2.20;;;;;;;22.27;61.38;99793.75;7844529;31;39824;-79
2023/06/06 12:50:33;;;;;;;2.62;2.03;;;;;;;21.50;61.53;99802.78;7820583;31;40013;-80
2023/06/06 12:54:50;;;;;;;3.58;2.15;;;;;;;21.53;62.58;99802.91;7839027;31;37980;-81
2023/06/06 12:59:07;;;;;;;5.03;2.80;;;;;;;21.52;61.95;99803.25;7840420;31;36833;-81
2023/06/06 13:03:23;;;;;;;4.68;2.70;;;;;;;21.45;61.11;99803.00;7819865;32;39293;-81
2023/06/06 13:07:40;;;;;;;4.25;3.08;;;;;;;21.51;63.03;99807.19;7819913;31;40059;-81
2023/06/06 13:11:57;;;;;;;6.78;3.20;;;;;;;21.56;63.54;99804.19;7820203;32;37957;-80
2023/06/06 13:16:13;;;;;;;5.70;2.85;;;;;;;21.56;64.04;99801.44;7820247;32;37684;-81
2023/06/06 13:20:30;;;;;;;6.35;2.97;;;;;;;21.61;63.36;99803.97;7818927;32;40041;-80
2023/06/06 13:24:46;;;;;;;7.97;3.37;;;;;;;21.55;65.06;99808.13;7820054;32;40603;-81
2023/06/06 13:29:02;;;;;;;4.62;2.60;;;;;;;21.55;65.71;99805.34;7819962;32;37871;-80
2023/06/06 13:33:19;;;;;;;4.05;2.70;;;;;;;21.75;64.77;99807.22;7839606;31;36907;-79
2023/06/06 13:37:36;;;;;;;4.00;2.67;;;;;;;21.79;63.52;99804.53;7847609;31;40106;-80
2023/06/06 13:41:53;;;;;;;6.30;3.12;;;;;;;21.76;63.54;99794.94;7847509;31;40637;-79
2023/06/06 13:46:09;;;;;;;6.30;3.17;;;;;;;21.54;63.36;99787.06;7847370;31;38602;-80
2023/06/06 13:50:27;;;;;;;4.57;3.10;;;;;;;21.79;62.53;99793.44;7839912;31;36923;-80
2023/06/06 13:54:44;;;;;;;5.90;3.03;;;;;;;21.54;63.38;99795.41;7844620;31;39318;-80
2023/06/06 13:59:02;;;;;;;10.30;3.17;;;;;;;21.50;64.21;99786.16;7843219;31;40730;-80
2023/06/06 14:03:20;;;;;;;4.65;3.30;;;;;;;21.58;64.40;99793.56;7844056;31;37524;-80
2023/06/06 14:07:37;;;;;;;5.95;2.90;;;;;;;21.66;64.55;99789.88;7844506;31;37549;-80
2023/06/06 14:11:56;;;;;;;6.28;2.90;;;;;;;21.69;64.49;99786.38;7846747;31;40113;-79
2023/06/06 14:16:12;;;;;;;8.75;3.70;;;;;;;21.58;65.64;99790.78;7845526;31;39661;-79
2023/06/06 14:20:36;;;;;;;5.72;3.58;;;;;;;21.43;66.05;99786.69;7846645;31;37867;-80
2023/06/06 14:24:56;;;;;;;5.93;3.90;;;;;;;21.46;66.00;99786.03;7846921;31;37831;-81
2023/06/06 14:29:12;;;;;;;7.40;4.25;;;;;;;21.65;65.05;99779.13;7837188;31;300050;-78
2023/06/06 14:33:30;;;;;;;9.20;4.15;;;;;;;21.73;64.67;99773.47;7846402;31;39922;-81
2023/06/06 14:37:46;;;;;;;8.55;4.75;;;;;;;21.75;64.87;99773.13;7846584;31;37637;-80
2023/06/06 14:42:03;;;;;;;10.35;4.78;;;;;;;21.63;65.70;99756.44;7846522;31;37832;-80
2023/06/06 14:46:19;;;;;;;8.60;4.75;;;;;;;21.95;64.64;99749.13;7845730;31;39427;-80
2023/06/06 14:50:36;;;;;;;9.30;5.78;;;;;;;22.02;64.69;99757.69;7846222;31;39969;-79
2023/06/06 14:54:52;;;;;;;10.52;5.25;;;;;;;21.74;65.33;99747.31;7846292;31;37719;-80
2023/06/06 14:59:09;;;;;;;9.02;4.85;;;;;;;21.74;65.70;99747.31;7846175;31;37125;-81
2023/06/06 15:03:26;;;;;;;8.77;4.87;;;;;;;21.68;65.87;99736.78;7845489;31;40053;-80
2023/06/06 15:07:42;;;;;;;10.13;5.32;;;;;;;21.66;65.65;99741.87;7845741;31;40058;-80
2023/06/06 15:11:59;;;;;;;14.05;5.20;;;;;;;21.67;65.37;99747.09;7845643;31;37823;-80
2023/06/06 15:16:15;;;;;;;11.23;5.65;;;;;;;21.83;64.99;99738.06;7846068;31;38197;-80
2023/06/06 15:20:32;;;;;;;11.12;5.62;;;;;;;21.76;65.27;99738.66;7849407;31;39441;-80
2023/06/06 15:24:48;;;;;;;9.32;5.87;;;;;;;21.64;66.00;99731.12;7848975;31;40774;-80
2023/06/06 15:29:05;;;;;;;11.25;6.20;;;;;;;21.76;65.37;99727.53;7848928;31;37944;-79
2023/06/06 15:33:22;;;;;;;9.82;6.03;;;;;;;21.70;65.43;99718.66;7848157;31;37155;-80
2023/06/06 15:37:38;;;;;;;10.15;5.95;;;;;;;21.66;65.72;99723.31;7845172;31;39162;-79
2023/06/06 15:41:55;;;;;;;11.32;6.05;;;;;;;21.62;66.20;99722.38;7847454;31;39889;-80
2023/06/06 15:46:11;;;;;;;10.88;5.95;;;;;;;21.88;65.23;99719.19;7820179;31;38668;-80
2023/06/06 15:50:28;;;;;;;11.12;6.30;;;;;;;21.83;65.20;99715.88;7820403;32;37113;-80
2023/06/06 15:54:44;;;;;;;10.70;6.28;;;;;;;21.88;65.09;99712.84;7837506;31;39511;-80
2023/06/06 15:59:01;;;;;;;10.65;5.75;;;;;;;21.79;65.09;99709.41;7847195;31;40141;-81
2023/06/06 16:03:18;;;;;;;11.23;6.43;;;;;;;21.67;66.17;99705.47;7848470;31;37773;-80
2023/06/06 16:07:34;;;;;;;10.68;5.70;;;;;;;21.73;65.64;99698.56;7848514;31;37705;-79
2023/06/06 16:11:51;;;;;;;9.23;6.22;;;;;;;21.96;64.68;99695.25;7848452;31;39327;-80
2023/06/06 16:16:07;;;;;;;12.43;6.22;;;;;;;21.99;64.48;99697.34;7848489;31;39954;-81
2023/06/06 16:20:23;;;;;;;17.10;6.57;;;;;;;21.93;64.33;99693.97;7848310;31;37831;-81
2023/06/06 16:24:40;;;;;;;15.38;6.78;;;;;;;21.71;64.82;99698.09;7847373;31;37117;-81
2023/06/06 16:28:56;;;;;;;16.85;7.30;;;;;;;21.87;64.65;99700.12;7846480;31;39935;-79
2023/06/06 16:33:12;;;;;;;10.35;5.82;;;;;;;21.92;64.46;99686.84;7846532;31;40915;-79
2023/06/06 16:37:29;;;;;;;15.05;6.87;;;;;;;21.50;66.20;99689.09;7844924;31;37904;-80
2023/06/06 16:41:45;;;;;;;13.75;6.72;;;;;;;21.76;65.17;99689.50;7844167;31;38145;-80
2023/06/06 16:46:02;;;;;;;12.13;7.22;;;;;;;21.68;65.54;99687.69;7843837;31;39319;-80
2023/06/06 16:50:19;;;;;;;12.18;7.55;;;;;;;21.65;65.52;99693.94;7844123;31;40004;-81
2023/06/06 16:54:36;;;;;;;16.35;7.47;;;;;;;21.68;65.34;99698.78;7844385;31;38042;-81
2023/06/06 16:58:53;;;;;;;12.13;7.47;;;;;;;21.51;66.52;99696.25;7842766;31;37928;-80
2023/06/06 17:03:10;;;;;;;12.50;7.60;;;;;;;21.53;66.28;99703.06;7844433;31;39320;-79
2023/06/06 17:07:27;;;;;;;17.55;7.62;;;;;;;21.56;66.18;99721.00;7845185;31;39908;-80
2023/06/06 17:11:44;;;;;;;12.00;6.90;;;;;;;21.53;66.34;99730.81;7832990;31;37852;-80
2023/06/06 17:16:01;;;;;;;17.17;7.40;;;;;;;21.47;66.79;99736.94;7823529;31;37786;-80
2023/06/06 17:20:18;;;;;;;12.23;7.03;;;;;;;21.29;67.49;99736.31;7824264;31;40034;-80
2023/06/06 17:24:35;;;;;;;15.50;7.80;;;;;;;21.52;66.37;99739.47;7819955;32;40656;-80
2023/06/06 17:28:52;;;;;;;15.40;7.62;;;;;;;21.55;65.90;99756.22;7818769;32;36969;-80
2023/06/06 17:33:09;;;;;;;19.77;8.27;;;;;;;21.49;66.26;99756.78;7819761;32;37113;-80
2023/06/06 17:37:26;;;;;;;18.33;8.23;;;;;;;21.55;65.95;99755.41;7819805;32;40082;-80
2023/06/06 17:41:42;;;;;;;14.45;7.90;;;;;;;21.39;66.72;99753.31;7832152;31;39750;-80
2023/06/06 17:45:59;;;;;;;16.37;7.78;;;;;;;21.41;66.86;99763.25;7847109;31;39128;-80
2023/06/06 17:50:15;;;;;;;11.32;7.25;;;;;;;21.39;66.51;99753.31;7847244;31;37713;-79
2023/06/06 17:54:32;;;;;;;13.68;7.80;;;;;;;21.17;67.38;99756.50;7847288;31;39305;-80
2023/06/06 17:58:48;;;;;;;15.05;8.20;;;;;;;21.32;66.75;99752.28;7845390;31;40050;-79
2023/06/06 18:03:05;;;;;;;12.73;7.87;;;;;;;21.34;66.65;99753.53;7819519;32;37936;-79
2023/06/06 18:07:22;;;;;;;13.18;7.97;;;;;;;21.23;67.33;99752.38;7826325;31;37421;-79
2023/06/06 18:11:40;;;;;;;13.20;7.65;;;;;;;21.33;66.72;99743.59;7843097;31;39275;-79
2023/06/06 18:15:56;;;;;;;11.75;7.47;;;;;;;21.31;66.74;99740.34;7846973;31;39729;-79
2023/06/06 18:20:13;;;;;;;13.05;8.40;;;;;;;21.13;67.23;99733.41;7846814;31;37818;-80
2023/06/06 18:24:29;;;;;;;13.70;8.30;;;;;;;21.14;67.41;99740.56;7846819;31;37291;-80
2023/06/06 18:28:46;;;;;;;14.90;8.65;;;;;;;21.14;67.48;99735.03;7828697;31;39263;-78
2023/06/06 18:33:02;;;;;;;12.40;8.23;;;;;;;21.08;67.47;99731.66;7828560;31;40071;-78
2023/06/06 18:37:20;;;;;;;15.63;9.10;;;;;;;21.09;67.45;99738.00;7830347;31;37883;-79
2023/06/06 18:41:36;;;;;;;13.93;8.93;;;;;;;20.86;68.05;99743.97;7825679;31;37792;-79
2023/06/06 18:45:53;;;;;;;14.55;8.70;;;;;;;21.13;66.81;99738.97;7831478;31;40069;-79
2023/06/06 18:50:10;;;;;;;14.65;7.95;;;;;;;20.97;67.33;99742.41;7826543;31;40973;-82
2023/06/06 18:54:26;;;;;;;16.75;8.43;;;;;;;20.86;67.89;99746.75;7833118;31;37812;-81
2023/06/06 18:58:48;;;;;;;12.77;8.60;;;;;;;20.73;68.36;99751.44;7820842;31;36928;-80
2023/06/06 19:03:04;;;;;;;13.95;8.52;;;;;;;20.87;67.93;99753.91;7846137;31;39900;-79
2023/06/06 19:07:21;;;;;;;14.25;7.68;;;;;;;20.90;67.66;99749.63;7845840;31;39645;-80
2023/06/06 19:11:37;;;;;;;14.52;7.72;;;;;;;20.89;67.42;99765.47;7821032;31;37948;-78
2023/06/06 19:15:53;;;;;;;10.95;7.53;;;;;;;20.70;68.12;99773.47;7842039;31;36421;-77
2023/06/06 19:20:13;;;;;;;14.55;7.90;;;;;;;20.82;67.65;99777.09;7830105;31;39268;-80
2023/06/06 19:24:31;;;;;;;14.52;7.30;;;;;;;20.75;67.70;99781.59;7835157;31;39899;-80
2023/06/06 19:28:48;;;;;;;12.18;7.32;;;;;;;20.76;67.48;99797.03;7840756;31;37914;-80
2023/06/06 19:33:04;;;;;;;14.05;7.47;;;;;;;20.75;67.81;99800.97;7839154;31;37267;-79
2023/06/06 19:37:21;;;;;;;12.32;7.40;;;;;;;20.67;68.20;99793.53;7836573;31;39441;-79
2023/06/06 19:41:40;;;;;;;12.13;7.72;;;;;;;20.80;67.75;99806.31;7839534;31;39649;-78
2023/06/06 19:45:57;;;;;;;12.45;6.47;;;;;;;20.72;68.00;99802.44;7842857;31;37814;-78
2023/06/06 19:50:14;;;;;;;12.02;6.82;;;;;;;20.90;67.15;99793.97;7841320;31;37214;-78
2023/06/06 19:54:30;;;;;;;14.00;6.30;;;;;;;20.72;67.98;99802.44;7843478;31;38945;-77
2023/06/06 19:58:50;;;;;;;11.38;6.85;;;;;;;20.82;67.38;99793.72;7835453;31;39937;-79
2023/06/06 20:03:10;;;;;;;14.07;7.25;;;;;;;20.62;67.47;99797.31;7838266;31;37972;-78